To NAV CANADA Home Page Login to a new session Search on AWWS site Feedback and Comments Disclaimer Vers la page française équivalente Tips FAQ What's new on the site To the Forecasts and Observations / NOTAM section To "File a Flight Plan" website Publications and other links Update of the User's profile FIC Telephone Numbers My Weather Data Folder Route Weather Data Regional Weather Data Local Weather Data To the Forecasts and Observations / NOTAM section
Request Generated 09/05/2015 at 01:07:12 UTC . Weather information available at that time is displayed.

METAR/TAF

DAWSON CITY/YT    

METAR CYDA 050100Z 13003KT 050V170 20SM OVC050 13/05 A2978 RMK SC8
SLP100 DENSITY ALT 1300FT=
METAR CYDA 050000Z 04006KT 20SM OVC050 13/04 A2978 RMK SC8 SLP099
DENSITY ALT 1400FT=
METAR CYDA 042300Z 00000KT 20SM OVC050 12/05 A2979 RMK SC8 SLP102=

TAF CYDA 042338Z 0500/0503 VRB03KT P6SM OVC050 TEMPO 0500/0503 P6SM
-SHRA
RMK NXT FCST WILL BE ISSUED AT 051445Z=
Your time UTC time
Weather data provided by Environment Canada and NAV CANADA